Time;durP1;ratioP1;P1;durP2;ratioP2;P2;SDS_P1;SDS_P2;PMS_P1;PMS_P2;Temp;Humidity;BMP_temperature;BMP_pressure;BME280_temperature;BME280_humidity;BME280_pressure;Samples;Min_cycle;Max_cycle;Signal;HPM_P1;HPM_P2
2021/07/12 00:01:20;;;;;;;;;;;;;;;;;;10251133;28;19928;-63
2021/07/12 00:06:17;;;;;;;;;;;;;;;;;;10244664;28;20353;-62
2021/07/12 00:11:14;;;;;;;;;;;;;;;;;;10226421;28;19913;-62
2021/07/12 00:16:12;;;;;;;;;;;;;;;;;;10223135;28;19951;-63
2021/07/12 00:21:09;;;;;;;;;;;;;;;;;;10240401;28;19917;-62
2021/07/12 00:26:06;;;;;;;;;;;;;;;;;;10237467;28;19917;-63
2021/07/12 00:31:04;;;;;;;;;;;;;;;;;;10248223;28;19913;-63
2021/07/12 00:36:01;;;;;;;;;;;;;;;;;;10217070;28;19918;-63
2021/07/12 00:40:58;;;;;;;;;;;;;;;;;;10237070;28;19921;-63
2021/07/12 00:45:56;;;;;;;;;;;;;;;;;;10246253;28;20008;-63
2021/07/12 00:50:53;;;;;;;;;;;;;;;;;;10223241;28;19940;-62
2021/07/12 00:55:51;;;;;;;;;;;;;;;;;;10218578;28;20292;-62
2021/07/12 01:00:48;;;;;;;;;;;;;;;;;;10256616;28;20000;-62
2021/07/12 01:05:46;;;;;;;;;;;;;;;;;;10244399;28;19914;-63
2021/07/12 01:10:45;;;;;;;;;;;;;;;;;;10245726;28;19913;-62
2021/07/12 01:15:43;;;;;;;;;;;;;;;;;;10231820;28;19940;-63
2021/07/12 01:20:58;;;;;;;;;;;;;;;;;;10226160;28;19917;-62
2021/07/12 01:25:55;;;;;;;;;;;;;;;;;;10254739;28;19917;-62
2021/07/12 01:30:53;;;;;;;;;;;;;;;;;;10230668;28;19913;-62
2021/07/12 01:35:50;;;;;;;;;;;;;;;;;;10227250;28;19923;-62
2021/07/12 01:40:48;;;;;;;;;;;;;;;;;;10234337;28;19918;-62
2021/07/12 01:45:45;;;;;;;;;;;;;;;;;;10250412;28;19918;-63
2021/07/12 01:50:47;;;;;;;;;;;;;;;;;;10236743;28;19925;-63
2021/07/12 01:55:44;;;;;;;;;;;;;;;;;;10225902;28;19982;-63
2021/07/12 02:00:44;;;;;;;;;;;;;;;;;;10242232;28;19998;-64
2021/07/12 02:05:41;;;;;;;;;;;;;;;;;;10237445;28;20008;-62
2021/07/12 02:10:40;;;;;;;;;;;;;;;;;;10243793;28;19941;-62
2021/07/12 02:15:40;;;;;;;;;;;;;;;;;;10247084;28;19949;-63
2021/07/12 02:20:55;;;;;;;;;;;;;;;;;;10228594;28;19956;-62
2021/07/12 02:25:53;;;;;;;;;;;;;;;;;;10216378;28;19918;-63
2021/07/12 02:30:50;;;;;;;;;;;;;;;;;;10230832;28;19940;-63
2021/07/12 02:35:49;;;;;;;;;;;;;;;;;;10231787;28;20248;-63
2021/07/12 02:40:47;;;;;;;;;;;;;;;;;;10238727;28;19917;-64
2021/07/12 02:45:44;;;;;;;;;;;;;;;;;;10226009;28;20415;-62
2021/07/12 02:50:42;;;;;;;;;;;;;;;;;;10254494;28;19914;-61
2021/07/12 02:55:40;;;;;;;;;;;;;;;;;;10241186;28;19924;-63
2021/07/12 03:00:39;;;;;;;;;;;;;;;;;;10260793;28;19918;-62
2021/07/12 03:05:36;;;;;;;;;;;;;;;;;;10242190;28;19913;-64
2021/07/12 03:10:33;;;;;;;;;;;;;;;;;;10243781;28;19917;-63
2021/07/12 03:15:32;;;;;;;;;;;;;;;;;;10261007;28;19917;-63
2021/07/12 03:20:30;;;;;;;;;;;;;;;;;;10261163;28;19921;-62
2021/07/12 03:25:28;;;;;;;;;;;;;;;;;;10257462;28;20295;-62
2021/07/12 03:30:25;;;;;;;;;;;;;;;;;;10248482;28;19917;-62
2021/07/12 03:35:23;;;;;;;;;;;;;;;;;;10236305;28;19929;-62
2021/07/12 03:40:20;;;;;;;;;;;;;;;;;;10216966;28;19924;-62
2021/07/12 03:45:18;;;;;;;;;;;;;;;;;;10260034;28;19977;-62
2021/07/12 03:50:17;;;;;;;;;;;;;;;;;;10218240;28;20351;-62
2021/07/12 03:55:15;;;;;;;;;;;;;;;;;;10232439;28;19929;-64
2021/07/12 04:00:12;;;;;;;;;;;;;;;;;;10262626;28;20391;-63
2021/07/12 04:05:13;;;;;;;;;;;;;;;;;;10262629;28;20383;-64
2021/07/12 04:10:11;;;;;;;;;;;;;;;;;;10262551;28;19913;-64
2021/07/12 04:15:08;;;;;;;;;;;;;;;;;;10261570;28;19957;-64
2021/07/12 04:20:05;;;;;;;;;;;;;;;;;;10262043;28;19924;-64
2021/07/12 04:25:02;;;;;;;;;;;;;;;;;;10261607;28;20293;-64
2021/07/12 04:30:00;;;;;;;;;;;;;;;;;;10239093;28;20247;-63
2021/07/12 04:34:57;;;;;;;;;;;;;;;;;;10237343;28;19921;-65
2021/07/12 04:39:54;;;;;;;;;;;;;;;;;;10252926;28;19932;-64
2021/07/12 04:44:51;;;;;;;;;;;;;;;;;;10264762;28;19914;-63
2021/07/12 04:49:49;;;;;;;;;;;;;;;;;;10260777;28;19919;-64
2021/07/12 04:54:46;;;;;;;;;;;;;;;;;;10260950;28;19913;-63
2021/07/12 04:59:44;;;;;;;;;;;;;;;;;;10255803;28;20113;-64
2021/07/12 05:04:41;;;;;;;;;;;;;;;;;;10255408;28;19921;-66
2021/07/12 05:09:39;;;;;;;;;;;;;;;;;;10261575;28;20342;-63
2021/07/12 05:14:37;;;;;;;;;;;;;;;;;;10263806;28;19921;-64
2021/07/12 05:19:34;;;;;;;;;;;;;;;;;;10256863;28;19925;-64
2021/07/12 05:24:31;;;;;;;;;;;;;;;;;;10258252;28;20334;-63
2021/07/12 05:29:28;;;;;;;;;;;;;;;;;;10260345;28;19917;-62
2021/07/12 05:34:26;;;;;;;;;;;;;;;;;;10245710;28;19917;-63
2021/07/12 05:39:23;;;;;;;;;;;;;;;;;;10254360;28;19917;-63
2021/07/12 05:44:20;;;;;;;;;;;;;;;;;;10258372;28;19913;-63
2021/07/12 05:49:18;;;;;;;;;;;;;;;;;;10257122;28;19956;-64
2021/07/12 05:54:15;;;;;;;;;;;;;;;;;;10256054;28;20060;-62
2021/07/12 05:59:13;;;;;;;;;;;;;;;;;;10246158;28;19924;-63
2021/07/12 06:04:10;;;;;;;;;;;;;;;;;;10248216;28;20426;-63
2021/07/12 06:09:07;;;;;;;;;;;;;;;;;;10241502;28;20323;-63
2021/07/12 06:14:04;;;;;;;;;;;;;;;;;;10245128;28;20144;-62
2021/07/12 06:19:01;;;;;;;;;;;;;;;;;;10241222;28;20295;-63
2021/07/12 06:23:59;;;;;;;;;;;;;;;;;;10259715;28;19972;-63
2021/07/12 06:28:56;;;;;;;;;;;;;;;;;;10244080;28;19914;-63
2021/07/12 06:33:53;;;;;;;;;;;;;;;;;;10248739;28;19917;-62
2021/07/12 06:38:51;;;;;;;;;;;;;;;;;;10228863;28;19917;-63
2021/07/12 06:43:49;;;;;;;;;;;;;;;;;;10255271;28;19914;-62
2021/07/12 06:48:50;;;;;;;;;;;;;;;;;;10221978;28;19913;-62
2021/07/12 06:54:00;;;;;;;;;;;;;;;;;;10235193;28;20012;-60
2021/07/12 06:58:57;;;;;;;;;;;;;;;;;;10228163;28;19940;-60
2021/07/12 07:03:57;;;;;;;;;;;;;;;;;;10254771;28;19944;-61
2021/07/12 07:08:54;;;;;;;;;;;;;;;;;;10234800;28;19937;-62
2021/07/12 07:13:51;;;;;;;;;;;;;;;;;;10243023;28;19920;-62
2021/07/12 07:18:48;;;;;;;;;;;;;;;;;;10239483;28;20004;-62
2021/07/12 07:23:48;;;;;;;;;;;;;;;;;;10222462;28;19925;-61
2021/07/12 07:28:45;;;;;;;;;;;;;;;;;;10240031;28;19924;-61
2021/07/12 07:33:43;;;;;;;;;;;;;;;;;;10247183;28;20012;-62
2021/07/12 07:38:41;;;;;;;;;;;;;;;;;;10247664;28;19964;-62
2021/07/12 07:43:38;;;;;;;;;;;;;;;;;;10244432;28;19917;-62
2021/07/12 07:48:35;;;;;;;;;;;;;;;;;;10244501;28;20501;-61
2021/07/12 07:53:35;;;;;;;;;;;;;;;;;;10248157;28;19914;-61
2021/07/12 07:58:33;;;;;;;;;;;;;;;;;;10245903;28;19918;-61
2021/07/12 08:03:31;;;;;;;;;;;;;;;;;;10255744;28;20366;-61
2021/07/12 08:08:30;;;;;;;;;;;;;;;;;;10215671;28;20005;-61
2021/07/12 08:13:27;;;;;;;;;;;;;;;;;;10244773;28;19913;-62
2021/07/12 08:18:26;;;;;;;;;;;;;;;;;;10241522;28;19925;-62
2021/07/12 08:23:23;;;;;;;;;;;;;;;;;;10222667;28;20401;-61
2021/07/12 08:28:24;;;;;;;;;;;;;;;;;;10245501;28;19913;-62
2021/07/12 08:33:23;;;;;;;;;;;;;;;;;;10226976;28;19979;-62
2021/07/12 08:38:20;;;;;;;;;;;;;;;;;;10224857;28;19917;-62
2021/07/12 08:43:17;;;;;;;;;;;;;;;;;;10210999;28;19952;-63
2021/07/12 08:48:14;;;;;;;;;;;;;;;;;;10195808;28;19924;-62
2021/07/12 08:53:12;;;;;;;;;;;;;;;;;;10218201;28;20016;-62
2021/07/12 08:58:09;;;;;;;;;;;;;;;;;;10205759;28;19925;-63
2021/07/12 09:03:07;;;;;;;;;;;;;;;;;;10199103;28;19928;-63
2021/07/12 09:08:04;;;;;;;;;;;;;;;;;;10220358;28;20718;-62
2021/07/12 09:13:01;;;;;;;;;;;;;;;;;;10212808;28;20095;-64
2021/07/12 09:17:58;;;;;;;;;;;;;;;;;;10214889;28;20025;-63
2021/07/12 09:22:56;;;;;;;;;;;;;;;;;;10223594;28;19957;-62
2021/07/12 09:27:53;;;;;;;;;;;;;;;;;;10221885;28;19944;-62
2021/07/12 09:32:50;;;;;;;;;;;;;;;;;;10226005;28;20000;-62
2021/07/12 09:37:48;;;;;;;;;;;;;;;;;;10221463;28;20319;-62
2021/07/12 09:42:45;;;;;;;;;;;;;;;;;;10224219;28;19925;-62
2021/07/12 09:47:44;;;;;;;;;;;;;;;;;;10221348;28;19928;-62
2021/07/12 09:52:41;;;;;;;;;;;;;;;;;;10216117;28;20314;-62
2021/07/12 09:57:39;;;;;;;;;;;;;;;;;;10217770;28;19929;-62
2021/07/12 10:02:36;;;;;;;;;;;;;;;;;;10218168;28;20039;-62
2021/07/12 10:07:34;;;;;;;;;;;;;;;;;;10216108;28;19921;-62
2021/07/12 10:12:31;;;;;;;;;;;;;;;;;;10225121;28;19948;-62
2021/07/12 10:17:28;;;;;;;;;;;;;;;;;;10223815;28;19961;-62
2021/07/12 10:22:26;;;;;;;;;;;;;;;;;;10223669;28;19925;-62
2021/07/12 10:27:23;;;;;;;;;;;;;;;;;;10224908;28;19968;-61
2021/07/12 10:32:20;;;;;;;;;;;;;;;;;;10222144;28;19968;-63
2021/07/12 10:37:17;;;;;;;;;;;;;;;;;;10226065;28;19996;-63
2021/07/12 10:42:15;;;;;;;;;;;;;;;;;;10202046;28;20015;-61
2021/07/12 10:47:12;;;;;;;;;;;;;;;;;;10221891;28;20398;-62
2021/07/12 10:52:09;;;;;;;;;;;;;;;;;;10195330;28;19968;-62
2021/07/12 10:57:11;;;;;;;;;;;;;;;;;;10150704;28;19917;-63
2021/07/12 11:02:08;;;;;;;;;;;;;;;;;;10139516;28;20908;-63
2021/07/12 11:07:06;;;;;;;;;;;;;;;;;;10154706;28;19917;-62
2021/07/12 11:12:03;;;;;;;;;;;;;;;;;;10171967;28;20032;-62
2021/07/12 11:17:00;;;;;;;;;;;;;;;;;;10175660;28;19925;-62
2021/07/12 11:21:58;;;;;;;;;;;;;;;;;;10179973;28;21064;-63
2021/07/12 11:26:55;;;;;;;;;;;;;;;;;;10158291;28;20489;-63
2021/07/12 11:31:54;;;;;;;;;;;;;;;;;;10155388;28;19929;-62
2021/07/12 11:36:51;;;;;;;;;;;;;;;;;;10146747;28;20733;-62
2021/07/12 11:41:49;;;;;;;;;;;;;;;;;;10154903;28;19995;-62
2021/07/12 11:46:46;;;;;;;;;;;;;;;;;;10117382;28;19984;-60
2021/07/12 11:51:43;;;;;;;;;;;;;;;;;;10126118;28;19928;-62
2021/07/12 11:56:42;;;;;;;;;;;;;;;;;;10173173;28;19929;-62
2021/07/12 12:01:39;;;;;;;;;;;;;;;;;;10170693;28;20179;-63
2021/07/12 12:06:36;;;;;;;;;;;;;;;;;;10151208;28;19932;-62
2021/07/12 12:11:34;;;;;;;;;;;;;;;;;;10163097;28;19921;-63
2021/07/12 12:16:31;;;;;;;;;;;;;;;;;;10173859;28;19921;-63
2021/07/12 12:21:28;;;;;;;;;;;;;;;;;;10166472;28;20406;-62
2021/07/12 12:26:28;;;;;;;;;;;;;;;;;;10177920;28;20015;-62
2021/07/12 12:31:29;;;;;;;;;;;;;;;;;;10155888;28;20258;-62
2021/07/12 12:36:26;;;;;;;;;;;;;;;;;;10167714;28;19921;-62
2021/07/12 12:41:23;;;;;;;;;;;;;;;;;;10173623;28;19933;-63
2021/07/12 12:46:21;;;;;;;;;;;;;;;;;;10155671;28;20547;-62
2021/07/12 12:51:18;;;;;;;;;;;;;;;;;;10177504;28;19925;-63
2021/07/12 12:56:16;;;;;;;;;;;;;;;;;;10180138;28;20442;-62
2021/07/12 13:01:15;;;;;;;;;;;;;;;;;;10156191;28;19937;-63
2021/07/12 13:06:12;;;;;;;;;;;;;;;;;;10162354;28;20509;-62
2021/07/12 13:11:13;;;;;;;;;;;;;;;;;;10148680;28;19922;-65
2021/07/12 13:16:11;;;;;;;;;;;;;;;;;;10153513;28;19998;-62
2021/07/12 13:21:08;;;;;;;;;;;;;;;;;;10154705;28;19925;-62
2021/07/12 13:26:06;;;;;;;;;;;;;;;;;;10165295;28;19917;-61
2021/07/12 13:31:03;;;;;;;;;;;;;;;;;;10242493;28;19987;-63
2021/07/12 13:36:00;;;;;;;;;;;;;;;;;;10247389;28;19914;-61
2021/07/12 13:40:57;;;;;;;;;;;;;;;;;;10246897;28;20383;-62
2021/07/12 13:45:55;;;;;;;;;;;;;;;;;;10233877;28;19921;-61
2021/07/12 13:50:52;;;;;;;;;;;;;;;;;;10253839;28;19937;-60
2021/07/12 13:55:50;;;;;;;;;;;;;;;;;;10238209;28;19924;-61
2021/07/12 14:00:47;;;;;;;;;;;;;;;;;;10253163;28;20535;-61
2021/07/12 14:05:44;;;;;;;;;;;;;;;;;;10250526;28;19917;-61
2021/07/12 14:10:42;;;;;;;;;;;;;;;;;;10261767;28;20306;-60
2021/07/12 14:15:39;;;;;;;;;;;;;;;;;;10229924;28;19917;-61
2021/07/12 14:20:36;;;;;;;;;;;;;;;;;;10212212;28;19921;-61
2021/07/12 14:25:34;;;;;;;;;;;;;;;;;;10234501;28;19926;-61
2021/07/12 14:30:31;;;;;;;;;;;;;;;;;;10228077;28;19921;-58
2021/07/12 14:35:29;;;;;;;;;;;;;;;;;;10244234;28;19922;-60
2021/07/12 14:40:26;;;;;;;;;;;;;;;;;;10239868;28;19964;-61
2021/07/12 14:45:23;;;;;;;;;;;;;;;;;;10254430;28;19913;-60
2021/07/12 14:50:21;;;;;;;;;;;;;;;;;;10242900;28;20342;-60
2021/07/12 14:55:18;;;;;;;;;;;;;;;;;;10252753;28;19936;-61
2021/07/12 15:00:15;;;;;;;;;;;;;;;;;;10251729;28;19917;-61
2021/07/12 15:05:12;;;;;;;;;;;;;;;;;;10250301;28;19920;-61
2021/07/12 15:10:10;;;;;;;;;;;;;;;;;;10232747;28;20363;-60
2021/07/12 15:15:07;;;;;;;;;;;;;;;;;;10248702;28;19914;-61
2021/07/12 15:20:04;;;;;;;;;;;;;;;;;;10240647;28;20402;-61
2021/07/12 15:25:01;;;;;;;;;;;;;;;;;;10231421;28;20111;-62
2021/07/12 15:29:59;;;;;;;;;;;;;;;;;;10241986;28;19925;-61
2021/07/12 15:34:57;;;;;;;;;;;;;;;;;;10235894;28;19971;-61
2021/07/12 15:39:55;;;;;;;;;;;;;;;;;;10252153;28;19936;-61
2021/07/12 15:44:52;;;;;;;;;;;;;;;;;;10229314;28;19933;-62
2021/07/12 15:49:50;;;;;;;;;;;;;;;;;;10237375;28;20276;-61
2021/07/12 15:54:48;;;;;;;;;;;;;;;;;;10250168;28;20004;-61
2021/07/12 15:59:45;;;;;;;;;;;;;;;;;;10238139;28;20501;-61
2021/07/12 16:04:42;;;;;;;;;;;;;;;;;;10241595;28;20404;-61
2021/07/12 16:09:40;;;;;;;;;;;;;;;;;;10242559;28;20360;-62
2021/07/12 16:14:38;;;;;;;;;;;;;;;;;;10224060;28;19921;-62
2021/07/12 16:19:35;;;;;;;;;;;;;;;;;;10248532;28;19923;-62
2021/07/12 16:24:33;;;;;;;;;;;;;;;;;;10233454;28;19921;-62
2021/07/12 16:29:30;;;;;;;;;;;;;;;;;;10252080;28;19918;-62
2021/07/12 16:34:27;;;;;;;;;;;;;;;;;;10256979;28;20275;-63
2021/07/12 16:39:24;;;;;;;;;;;;;;;;;;10264102;28;20013;-62
2021/07/12 16:44:22;;;;;;;;;;;;;;;;;;10253066;28;19940;-62
2021/07/12 16:49:19;;;;;;;;;;;;;;;;;;10258414;28;19918;-62
2021/07/12 16:54:16;;;;;;;;;;;;;;;;;;10254445;28;19914;-62
2021/07/12 16:59:13;;;;;;;;;;;;;;;;;;10239824;28;19917;-62
2021/07/12 17:04:11;;;;;;;;;;;;;;;;;;10238163;28;19920;-63
2021/07/12 17:09:08;;;;;;;;;;;;;;;;;;10239441;28;19913;-61
2021/07/12 17:14:06;;;;;;;;;;;;;;;;;;10217452;28;19948;-62
2021/07/12 17:19:03;;;;;;;;;;;;;;;;;;10246180;28;19924;-61
2021/07/12 17:24:00;;;;;;;;;;;;;;;;;;10231560;28;19936;-62
2021/07/12 17:28:58;;;;;;;;;;;;;;;;;;10239833;28;20020;-62
2021/07/12 17:33:56;;;;;;;;;;;;;;;;;;10251798;28;19996;-61
2021/07/12 17:38:53;;;;;;;;;;;;;;;;;;10253270;28;19917;-62
2021/07/12 17:43:50;;;;;;;;;;;;;;;;;;10244892;28;20351;-61
2021/07/12 17:48:48;;;;;;;;;;;;;;;;;;10246389;28;19918;-62
2021/07/12 17:53:46;;;;;;;;;;;;;;;;;;10231514;28;19921;-61
2021/07/12 17:58:43;;;;;;;;;;;;;;;;;;10249721;28;20425;-61
2021/07/12 18:03:42;;;;;;;;;;;;;;;;;;10218850;28;19920;-63
2021/07/12 18:08:39;;;;;;;;;;;;;;;;;;10250592;28;19925;-63
2021/07/12 18:13:37;;;;;;;;;;;;;;;;;;10237633;28;20598;-63
2021/07/12 18:18:34;;;;;;;;;;;;;;;;;;10219965;28;20012;-62
2021/07/12 18:23:31;;;;;;;;;;;;;;;;;;10238380;28;20390;-62
2021/07/12 18:28:28;;;;;;;;;;;;;;;;;;10233579;28;19932;-61
2021/07/12 18:33:26;;;;;;;;;;;;;;;;;;10233575;28;20444;-62
2021/07/12 18:38:23;;;;;;;;;;;;;;;;;;10252111;28;20243;-62
2021/07/12 18:43:20;;;;;;;;;;;;;;;;;;10236140;28;19914;-63
2021/07/12 18:48:17;;;;;;;;;;;;;;;;;;10253500;28;20344;-63
2021/07/12 18:53:15;;;;;;;;;;;;;;;;;;10226549;28;19968;-63
2021/07/12 18:58:12;;;;;;;;;;;;;;;;;;10231997;28;19974;-62
2021/07/12 19:03:10;;;;;;;;;;;;;;;;;;10244772;28;20262;-62
2021/07/12 19:08:09;;;;;;;;;;;;;;;;;;10238871;28;20457;-62
2021/07/12 19:13:07;;;;;;;;;;;;;;;;;;10234549;28;19913;-62
2021/07/12 19:18:04;;;;;;;;;;;;;;;;;;10237644;28;19913;-62
2021/07/12 19:23:01;;;;;;;;;;;;;;;;;;10222765;28;19978;-62
2021/07/12 19:27:58;;;;;;;;;;;;;;;;;;10228480;28;19921;-63
2021/07/12 19:32:56;;;;;;;;;;;;;;;;;;10224246;28;19913;-61
2021/07/12 19:37:53;;;;;;;;;;;;;;;;;;10237414;28;19917;-61
2021/07/12 19:42:50;;;;;;;;;;;;;;;;;;10244051;28;19964;-61
2021/07/12 19:47:49;;;;;;;;;;;;;;;;;;10233693;28;20246;-61
2021/07/12 19:52:46;;;;;;;;;;;;;;;;;;10239723;28;19918;-62
2021/07/12 19:57:44;;;;;;;;;;;;;;;;;;10241753;28;20383;-61
2021/07/12 20:02:41;;;;;;;;;;;;;;;;;;10226519;28;20019;-61
2021/07/12 20:07:39;;;;;;;;;;;;;;;;;;10237060;28;20490;-59
2021/07/12 20:12:37;;;;;;;;;;;;;;;;;;10225981;28;20043;-61
2021/07/12 20:17:35;;;;;;;;;;;;;;;;;;10230093;28;20044;-60
2021/07/12 20:22:32;;;;;;;;;;;;;;;;;;10233897;28;20039;-60
2021/07/12 20:27:30;;;;;;;;;;;;;;;;;;10248024;28;19921;-61
2021/07/12 20:32:28;;;;;;;;;;;;;;;;;;10227978;28;20770;-61
2021/07/12 20:37:25;;;;;;;;;;;;;;;;;;10226763;28;20367;-61
2021/07/12 20:42:22;;;;;;;;;;;;;;;;;;10207619;28;19918;-61
2021/07/12 20:47:20;;;;;;;;;;;;;;;;;;10235333;28;19917;-60
2021/07/12 20:52:17;;;;;;;;;;;;;;;;;;10223811;28;19972;-62
2021/07/12 20:57:14;;;;;;;;;;;;;;;;;;10225258;28;19920;-61
2021/07/12 21:02:11;;;;;;;;;;;;;;;;;;10235566;28;20400;-62
2021/07/12 21:07:09;;;;;;;;;;;;;;;;;;10220798;28;19924;-60
2021/07/12 21:12:06;;;;;;;;;;;;;;;;;;10221014;28;19924;-60
2021/07/12 21:17:07;;;;;;;;;;;;;;;;;;10218210;28;19921;-60
2021/07/12 21:22:04;;;;;;;;;;;;;;;;;;10229488;28;19918;-62
2021/07/12 21:27:01;;;;;;;;;;;;;;;;;;10231159;28;19913;-61
2021/07/12 21:31:58;;;;;;;;;;;;;;;;;;10225924;28;19969;-60
2021/07/12 21:36:56;;;;;;;;;;;;;;;;;;10229465;28;20394;-60
2021/07/12 21:41:53;;;;;;;;;;;;;;;;;;10186637;28;19925;-62
2021/07/12 21:46:50;;;;;;;;;;;;;;;;;;10146222;28;20020;-61
2021/07/12 21:51:47;;;;;;;;;;;;;;;;;;10137669;28;19921;-60
2021/07/12 21:56:45;;;;;;;;;;;;;;;;;;10160479;28;19960;-62
2021/07/12 22:01:42;;;;;;;;;;;;;;;;;;10241110;28;19925;-62
2021/07/12 22:06:39;;;;;;;;;;;;;;;;;;10235424;28;19947;-61
2021/07/12 22:11:37;;;;;;;;;;;;;;;;;;10256807;28;19921;-62
2021/07/12 22:16:34;;;;;;;;;;;;;;;;;;10242594;28;19918;-65
2021/07/12 22:21:31;;;;;;;;;;;;;;;;;;10252589;28;20358;-62
2021/07/12 22:26:28;;;;;;;;;;;;;;;;;;10245213;28;19941;-63
2021/07/12 22:31:26;;;;;;;;;;;;;;;;;;10244829;28;19913;-63
2021/07/12 22:36:23;;;;;;;;;;;;;;;;;;10244809;28;19944;-63
2021/07/12 22:41:20;;;;;;;;;;;;;;;;;;10227826;28;19924;-64
2021/07/12 22:46:18;;;;;;;;;;;;;;;;;;10275711;22;19973;-69
2021/07/12 22:51:15;;;;;;;;;;;;;;;;;;10349615;28;19913;-69
2021/07/12 22:56:12;;;;;;;;;;;;;;;;;;10320234;28;19989;-68
2021/07/12 23:01:09;;;;;;;;;;;;;;;;;;10335697;28;19939;-70
2021/07/12 23:06:07;;;;;;;;;;;;;;;;;;10335290;28;19913;-71
2021/07/12 23:11:04;;;;;;;;;;;;;;;;;;10330912;28;19913;-71
2021/07/12 23:16:01;;;;;;;;;;;;;;;;;;10335095;28;19913;-70
2021/07/12 23:20:59;;;;;;;;;;;;;;;;;;10337647;28;19943;-70
2021/07/12 23:25:57;;;;;;;;;;;;;;;;;;10318310;28;19954;-70
2021/07/12 23:30:54;;;;;;;;;;;;;;;;;;10331916;28;19913;-70
2021/07/12 23:35:51;;;;;;;;;;;;;;;;;;10326655;28;19912;-70
2021/07/12 23:40:49;;;;;;;;;;;;;;;;;;10336703;28;19969;-70
2021/07/12 23:45:46;;;;;;;;;;;;;;;;;;10330006;28;20374;-70
2021/07/12 23:50:43;;;;;;;;;;;;;;;;;;10339022;28;20333;-70
2021/07/12 23:55:41;;;;;;;;;;;;;;;;;;10339210;28;19913;-69
